createdAt,value
2022-07-30T00:00:51.722Z,1.20
2022-07-30T00:01:51.639Z,1.40
2022-07-30T00:02:51.630Z,1.30
2022-07-30T00:03:51.753Z,1.30
2022-07-30T00:04:51.592Z,1.20
2022-07-30T00:05:51.579Z,1.20
2022-07-30T00:06:51.593Z,1.20
2022-07-30T00:07:51.557Z,1.30
2022-07-30T00:08:51.539Z,1.30
2022-07-30T00:09:51.519Z,1.20
2022-07-30T00:10:51.509Z,1.30
2022-07-30T00:11:51.490Z,1.10
2022-07-30T00:12:51.498Z,1.20
2022-07-30T00:13:51.471Z,1.30
2022-07-30T00:14:51.460Z,1.10
2022-07-30T00:15:51.471Z,1.10
2022-07-30T00:16:51.535Z,1.20
2022-07-30T00:17:51.422Z,1.30
2022-07-30T00:18:51.670Z,1.20
2022-07-30T00:19:51.392Z,1.20
2022-07-30T00:20:51.389Z,1.20
2022-07-30T00:21:51.363Z,1.20
2022-07-30T00:22:51.360Z,1.30
2022-07-30T00:24:01.924Z,1.30
2022-07-30T00:24:52.341Z,1.20
2022-07-30T00:25:51.385Z,1.30
2022-07-30T00:26:51.300Z,1.20
2022-07-30T00:27:51.290Z,1.20
2022-07-30T00:28:51.281Z,1.30
2022-07-30T00:29:51.261Z,1.10
2022-07-30T00:30:54.974Z,1.20
2022-07-30T00:31:52.237Z,1.30
2022-07-30T00:32:51.224Z,1.10
2022-07-30T00:33:51.237Z,1.20
2022-07-30T00:34:51.213Z,1.30
2022-07-30T00:35:51.295Z,1.30
2022-07-30T00:36:51.205Z,1.50
2022-07-30T00:37:51.155Z,1.20
2022-07-30T00:38:51.143Z,1.30
2022-07-30T00:39:51.165Z,1.20
2022-07-30T00:40:51.155Z,1.30
2022-07-30T00:41:51.116Z,1.40
2022-07-30T00:42:51.095Z,1.30
2022-07-30T00:43:51.085Z,1.30
2022-07-30T00:44:51.067Z,1.40
2022-07-30T00:45:51.064Z,1.40
2022-07-30T00:46:51.040Z,1.40
2022-07-30T00:47:51.065Z,1.40
2022-07-30T00:48:51.055Z,1.40
2022-07-30T00:49:51.089Z,1.50
2022-07-30T00:50:50.985Z,1.50
2022-07-30T00:51:50.986Z,1.40
2022-07-30T00:52:50.963Z,1.60
2022-07-30T00:53:50.987Z,1.80
2022-07-30T00:54:50.941Z,1.50
2022-07-30T00:55:50.926Z,1.40
2022-07-30T00:56:50.908Z,1.60
2022-07-30T00:57:50.895Z,1.70
2022-07-30T00:58:50.886Z,1.60
2022-07-30T00:59:50.878Z,1.40
2022-07-30T01:00:50.903Z,1.60
2022-07-30T01:01:50.937Z,1.80
2022-07-30T01:02:50.848Z,1.60
2022-07-30T01:03:50.998Z,1.60
2022-07-30T01:04:50.810Z,1.70
2022-07-30T01:05:50.787Z,1.50
2022-07-30T01:06:50.806Z,1.40
2022-07-30T01:07:50.768Z,1.50
2022-07-30T01:08:50.757Z,1.60
2022-07-30T01:09:50.727Z,1.50
2022-07-30T01:10:50.717Z,1.50
2022-07-30T01:11:50.748Z,1.60
2022-07-30T01:12:50.700Z,1.50
2022-07-30T01:13:50.709Z,1.50
2022-07-30T01:14:50.690Z,1.40
2022-07-30T01:16:46.075Z,1.80
2022-07-30T01:17:45.998Z,1.80
2022-07-30T01:18:46.979Z,1.70
2022-07-30T01:19:45.987Z,1.60
2022-07-30T01:20:45.957Z,1.60
2022-07-30T01:21:45.949Z,1.60
2022-07-30T01:22:45.931Z,1.60
2022-07-30T01:23:45.920Z,1.50
2022-07-30T01:24:45.919Z,1.40
2022-07-30T01:25:45.910Z,1.90
2022-07-30T01:26:45.880Z,1.50
2022-07-30T01:27:45.860Z,1.70
2022-07-30T01:28:45.849Z,1.60
2022-07-30T01:29:45.838Z,1.70
2022-07-30T01:30:45.831Z,1.90
2022-07-30T01:31:45.883Z,1.70
2022-07-30T01:32:45.799Z,1.70
2022-07-30T01:33:45.779Z,1.60
2022-07-30T01:34:45.777Z,1.80
2022-07-30T01:35:45.772Z,1.80
2022-07-30T01:36:45.765Z,1.90
2022-07-30T01:37:45.762Z,1.80
2022-07-30T01:38:45.735Z,2.00
2022-07-30T01:39:45.721Z,1.80
2022-07-30T01:40:45.715Z,1.90
2022-07-30T01:41:45.692Z,1.90
2022-07-30T01:45:07.655Z,1.70
2022-07-30T01:46:08.411Z,1.70
2022-07-30T01:47:07.614Z,2.10
2022-07-30T01:48:07.614Z,1.80
2022-07-30T01:49:07.657Z,1.90
2022-07-30T01:50:07.585Z,1.80
2022-07-30T01:51:07.593Z,1.90
2022-07-30T01:52:07.544Z,1.90
2022-07-30T01:53:07.524Z,2.20
2022-07-30T01:54:07.513Z,2.00
2022-07-30T01:55:11.496Z,2.10
2022-07-30T01:56:10.518Z,2.00
2022-07-30T01:57:07.475Z,1.90
2022-07-30T01:58:07.465Z,1.70
2022-07-30T01:59:07.463Z,1.90
2022-07-30T02:00:07.456Z,1.90
2022-07-30T02:01:07.650Z,1.80
2022-07-30T02:02:07.427Z,2.00
2022-07-30T02:03:07.467Z,1.80
2022-07-30T02:04:07.394Z,1.70
2022-07-30T02:05:07.377Z,2.00
2022-07-30T02:06:07.366Z,1.80
2022-07-30T02:07:07.398Z,2.10
2022-07-30T02:08:07.348Z,1.90
2022-07-30T02:09:11.253Z,1.90
2022-07-30T02:10:07.322Z,1.60
2022-07-30T02:11:07.314Z,2.30
2022-07-30T02:12:07.307Z,1.70
2022-07-30T02:13:07.294Z,2.00
2022-07-30T02:14:07.288Z,2.00
2022-07-30T02:15:07.280Z,1.90
2022-07-30T02:16:07.295Z,2.00
2022-07-30T02:17:07.217Z,2.00
2022-07-30T02:18:08.208Z,2.00
2022-07-30T02:19:07.197Z,2.00
2022-07-30T02:20:09.912Z,2.00
2022-07-30T02:21:07.539Z,1.90
2022-07-30T02:22:08.609Z,2.20
2022-07-30T02:23:07.173Z,2.20
2022-07-30T02:24:07.150Z,1.60
2022-07-30T02:25:07.151Z,1.90
2022-07-30T02:26:07.179Z,1.90
2022-07-30T02:27:07.111Z,2.10
2022-07-30T02:28:07.100Z,1.70
2022-07-30T02:29:11.072Z,2.00
2022-07-30T02:30:07.069Z,1.80
2022-07-30T02:31:17.115Z,2.00
2022-07-30T02:32:08.028Z,2.10
2022-07-30T02:33:07.020Z,2.10
2022-07-30T02:34:07.010Z,1.80
2022-07-30T02:35:06.999Z,2.00
2022-07-30T02:36:11.209Z,2.00
2022-07-30T02:37:07.007Z,1.90
2022-07-30T02:38:06.958Z,2.00
2022-07-30T02:39:06.941Z,1.70
2022-07-30T02:40:06.941Z,2.60
2022-07-30T02:41:06.940Z,1.70
2022-07-30T02:42:06.912Z,2.20
2022-07-30T02:43:06.901Z,1.70
2022-07-30T02:44:06.884Z,2.40
2022-07-30T02:45:06.872Z,1.80
2022-07-30T02:46:06.873Z,2.10
2022-07-30T02:47:07.061Z,1.90
2022-07-30T02:48:06.834Z,2.10
2022-07-30T02:49:06.856Z,1.90
2022-07-30T02:50:06.802Z,2.10
2022-07-30T02:51:06.802Z,1.80
2022-07-30T02:52:06.791Z,1.90
2022-07-30T02:53:06.775Z,2.10
2022-07-30T02:54:06.766Z,2.20
2022-07-30T02:55:06.744Z,1.90
2022-07-30T02:56:06.788Z,1.90
2022-07-30T02:57:06.715Z,1.80
2022-07-30T02:58:06.707Z,2.00
2022-07-30T02:59:06.685Z,1.80
2022-07-30T03:00:06.675Z,1.90
2022-07-30T03:01:06.805Z,1.90
2022-07-30T03:02:06.735Z,1.90
2022-07-30T03:03:06.642Z,2.20
2022-07-30T03:04:06.633Z,2.10
2022-07-30T03:05:06.613Z,1.80
2022-07-30T03:06:06.604Z,1.80
2022-07-30T03:07:08.594Z,1.90
2022-07-30T03:08:06.575Z,2.00
2022-07-30T03:09:06.576Z,2.00
2022-07-30T03:10:06.563Z,2.10
2022-07-30T03:11:06.523Z,2.20
2022-07-30T03:12:06.522Z,1.90
2022-07-30T03:13:06.524Z,2.00
2022-07-30T03:14:06.495Z,2.10
2022-07-30T03:15:06.488Z,2.00
2022-07-30T03:16:06.546Z,2.20
2022-07-30T03:17:06.456Z,2.10
2022-07-30T03:18:06.446Z,2.10
2022-07-30T03:19:06.438Z,2.00
2022-07-30T03:20:06.509Z,2.10
2022-07-30T03:21:06.427Z,2.20
2022-07-30T03:22:06.429Z,2.20
2022-07-30T03:23:06.387Z,2.20
2022-07-30T03:24:06.382Z,2.10
2022-07-30T03:25:06.365Z,2.00
2022-07-30T03:26:06.357Z,2.10
2022-07-30T03:27:06.339Z,2.00
2022-07-30T03:28:06.317Z,2.20
2022-07-30T03:29:06.296Z,2.20
2022-07-30T03:30:06.317Z,2.40
2022-07-30T03:31:06.333Z,2.50
2022-07-30T03:32:06.267Z,2.10
2022-07-30T03:33:06.250Z,2.00
2022-07-30T03:34:06.371Z,2.00
2022-07-30T03:35:08.807Z,2.10
2022-07-30T03:36:07.229Z,2.00
2022-07-30T03:37:06.210Z,2.10
2022-07-30T03:38:06.199Z,2.20
2022-07-30T03:39:06.250Z,2.10
2022-07-30T03:40:06.180Z,2.10
2022-07-30T03:41:06.172Z,2.10
2022-07-30T03:42:06.140Z,2.10
2022-07-30T03:43:06.131Z,2.20
2022-07-30T03:44:07.149Z,2.00
2022-07-30T03:45:06.101Z,2.10
2022-07-30T03:46:06.190Z,1.90
2022-07-30T03:47:06.327Z,2.10
2022-07-30T03:48:06.069Z,2.20
2022-07-30T03:49:06.143Z,2.30
2022-07-30T03:50:06.049Z,2.20
2022-07-30T03:51:06.022Z,2.40
2022-07-30T03:52:06.034Z,2.20
2022-07-30T03:53:06.002Z,2.30
2022-07-30T03:54:08.428Z,2.40
2022-07-30T03:55:05.973Z,2.50
2022-07-30T03:56:05.962Z,2.20
2022-07-30T03:57:05.942Z,2.20
2022-07-30T03:58:05.954Z,2.40
2022-07-30T03:59:05.922Z,2.00
2022-07-30T04:00:05.901Z,2.10
2022-07-30T04:01:05.891Z,2.30
2022-07-30T04:02:07.177Z,2.00
2022-07-30T04:03:05.871Z,2.30
2022-07-30T04:04:05.924Z,2.30
2022-07-30T04:05:05.852Z,2.50
2022-07-30T04:06:05.830Z,2.20
2022-07-30T04:07:05.834Z,2.30
2022-07-30T04:08:05.812Z,2.20
2022-07-30T04:09:05.804Z,2.40
2022-07-30T04:10:05.781Z,2.20
2022-07-30T04:11:05.774Z,2.40
2022-07-30T04:12:05.796Z,2.50
2022-07-30T04:13:09.454Z,2.50
2022-07-30T04:14:05.725Z,2.50
2022-07-30T04:16:37.074Z,2.40
2022-07-30T04:16:39.337Z,2.60
2022-07-30T04:17:06.705Z,2.30
2022-07-30T04:18:05.665Z,2.50
2022-07-30T04:19:05.654Z,2.40
2022-07-30T04:20:05.652Z,2.40
2022-07-30T04:21:05.643Z,2.30
2022-07-30T04:22:05.624Z,2.40
2022-07-30T04:23:05.615Z,2.50
2022-07-30T04:24:05.857Z,2.40
2022-07-30T04:25:05.586Z,2.30
2022-07-30T04:26:05.567Z,2.40
2022-07-30T04:27:05.576Z,2.50
2022-07-30T04:28:05.859Z,2.50
2022-07-30T04:29:05.536Z,2.40
2022-07-30T04:30:05.519Z,2.50
2022-07-30T04:31:05.548Z,2.40
2022-07-30T04:32:05.528Z,2.50
2022-07-30T04:33:05.479Z,2.80
2022-07-30T04:34:05.457Z,2.50
2022-07-30T04:35:05.497Z,2.40
2022-07-30T04:36:05.428Z,2.50
2022-07-30T04:37:05.418Z,2.60
2022-07-30T04:38:05.421Z,2.50
2022-07-30T04:39:05.407Z,2.60
2022-07-30T04:40:05.400Z,2.40
2022-07-30T04:41:05.378Z,2.40
2022-07-30T04:42:05.358Z,2.70
2022-07-30T04:43:05.359Z,2.60
2022-07-30T04:44:05.375Z,2.60
2022-07-30T04:45:05.329Z,2.50
2022-07-30T04:46:05.341Z,2.30
2022-07-30T04:47:05.296Z,2.30
2022-07-30T04:48:05.276Z,2.40
2022-07-30T04:49:05.343Z,2.20
2022-07-30T04:50:05.258Z,2.20
2022-07-30T04:51:05.237Z,2.50
2022-07-30T04:52:05.218Z,2.30
2022-07-30T04:53:05.219Z,2.20
2022-07-30T04:54:05.200Z,2.20
2022-07-30T04:55:05.206Z,2.10
2022-07-30T04:56:05.173Z,2.20
2022-07-30T04:57:05.540Z,2.50
2022-07-30T04:58:05.151Z,2.20
2022-07-30T04:59:05.139Z,2.10
2022-07-30T05:00:05.129Z,2.20
2022-07-30T05:01:05.155Z,2.20
2022-07-30T05:02:05.119Z,2.20
2022-07-30T05:03:05.131Z,2.10
2022-07-30T05:04:05.061Z,2.20
2022-07-30T05:05:05.182Z,2.20
2022-07-30T05:06:05.047Z,1.90
2022-07-30T05:07:05.349Z,2.20
2022-07-30T05:08:05.020Z,2.00
2022-07-30T05:09:05.004Z,2.30
2022-07-30T05:10:04.991Z,2.00
2022-07-30T05:11:05.003Z,2.00
2022-07-30T05:12:04.972Z,2.20
2022-07-30T05:13:04.962Z,1.90
2022-07-30T05:14:04.944Z,2.30
2022-07-30T05:15:04.922Z,2.50
2022-07-30T05:16:04.951Z,1.90
2022-07-30T05:17:04.911Z,2.40
2022-07-30T05:18:04.882Z,2.10
2022-07-30T05:19:07.925Z,2.10
2022-07-30T05:20:04.874Z,2.20
2022-07-30T05:21:04.854Z,2.00
2022-07-30T05:22:06.807Z,2.10
2022-07-30T05:23:04.836Z,2.10
2022-07-30T05:24:04.823Z,2.10
2022-07-30T05:25:04.805Z,1.90
2022-07-30T05:26:05.794Z,2.10
2022-07-30T05:27:04.843Z,2.00
2022-07-30T05:30:41.921Z,2.20
2022-07-30T05:31:26.845Z,2.20
2022-07-30T05:32:27.134Z,2.20
2022-07-30T05:33:41.109Z,1.80
2022-07-30T05:34:27.729Z,1.90
2022-07-30T05:35:26.728Z,2.10
2022-07-30T05:36:26.708Z,1.90
2022-07-30T05:37:26.717Z,2.00
2022-07-30T05:38:28.760Z,2.10
2022-07-30T05:39:26.686Z,1.80
2022-07-30T05:40:26.692Z,2.00
2022-07-30T05:41:32.570Z,1.80
2022-07-30T05:42:27.628Z,2.00
2022-07-30T05:43:26.617Z,2.00
2022-07-30T05:44:26.597Z,2.10
2022-07-30T05:45:26.636Z,1.80
2022-07-30T05:46:26.678Z,1.60
2022-07-30T05:47:26.570Z,1.70
2022-07-30T05:48:26.570Z,1.90
2022-07-30T05:49:26.588Z,2.00
2022-07-30T05:50:26.539Z,1.90
2022-07-30T05:51:26.529Z,1.90
2022-07-30T05:52:26.510Z,2.00
2022-07-30T05:53:26.489Z,1.90
2022-07-30T05:54:26.487Z,1.90
2022-07-30T05:55:26.479Z,1.70
2022-07-30T05:56:26.439Z,1.70
2022-07-30T05:57:26.456Z,1.70
2022-07-30T05:58:26.437Z,1.70
2022-07-30T05:59:26.400Z,1.80
2022-07-30T06:00:26.390Z,1.70
2022-07-30T06:01:26.406Z,1.80
2022-07-30T06:02:26.361Z,1.60
2022-07-30T06:03:26.381Z,1.60
2022-07-30T06:04:26.361Z,1.80
2022-07-30T06:05:26.341Z,1.60
2022-07-30T06:06:26.321Z,1.60
2022-07-30T06:07:26.313Z,1.70
2022-07-30T06:08:26.313Z,1.80
2022-07-30T06:09:36.472Z,1.60
2022-07-30T06:10:27.252Z,1.70
2022-07-30T06:11:26.271Z,1.60
2022-07-30T06:12:26.231Z,1.70
2022-07-30T06:13:26.238Z,1.60
2022-07-30T06:14:26.223Z,1.40
2022-07-30T06:15:26.501Z,1.60
2022-07-30T06:16:26.223Z,1.40
2022-07-30T06:17:26.171Z,1.60
2022-07-30T06:18:26.162Z,1.50
2022-07-30T06:19:26.178Z,1.50
2022-07-30T06:20:26.142Z,1.50
2022-07-30T06:21:26.155Z,1.40
2022-07-30T06:22:26.356Z,1.40
2022-07-30T06:23:26.094Z,1.30
2022-07-30T06:24:26.085Z,1.60
2022-07-30T06:25:26.084Z,1.20
2022-07-30T06:26:26.061Z,1.20
2022-07-30T06:27:26.041Z,1.10
2022-07-30T06:28:37.707Z,1.20
2022-07-30T06:29:27.013Z,1.30
2022-07-30T06:30:31.114Z,1.30
2022-07-30T06:31:27.117Z,1.30
2022-07-30T06:32:25.984Z,1.20
2022-07-30T06:33:25.986Z,1.30
2022-07-30T06:34:25.944Z,1.30
2022-07-30T06:35:25.935Z,1.20
2022-07-30T06:36:25.933Z,1.30
2022-07-30T06:38:00.566Z,1.10
2022-07-30T06:38:26.907Z,1.40
2022-07-30T06:39:55.931Z,1.20
2022-07-30T06:40:26.946Z,1.20
2022-07-30T06:41:25.856Z,1.30
2022-07-30T06:42:25.857Z,1.40
2022-07-30T06:43:25.848Z,1.30
2022-07-30T06:44:25.829Z,1.20
2022-07-30T06:45:25.828Z,1.10
2022-07-30T06:46:25.867Z,1.40
2022-07-30T06:47:25.809Z,1.10
2022-07-30T06:48:25.781Z,1.10
2022-07-30T06:49:25.816Z,1.10
2022-07-30T06:50:25.748Z,1.20
2022-07-30T06:51:25.728Z,1.20
2022-07-30T06:52:25.728Z,1.00
2022-07-30T06:53:25.720Z,1.20
2022-07-30T06:54:25.708Z,1.10
2022-07-30T06:55:25.677Z,1.10
2022-07-30T06:56:25.771Z,1.00
2022-07-30T06:57:25.716Z,1.10
2022-07-30T06:58:25.845Z,1.20
2022-07-30T06:59:25.651Z,1.00
2022-07-30T07:00:25.629Z,1.10
2022-07-30T07:01:25.635Z,1.20
2022-07-30T07:02:25.591Z,1.10
2022-07-30T07:03:25.581Z,1.10
2022-07-30T07:04:26.641Z,1.10
2022-07-30T07:05:25.582Z,1.00
2022-07-30T07:06:25.540Z,1.20
2022-07-30T07:07:40.634Z,1.00
2022-07-30T07:08:26.517Z,0.90
2022-07-30T07:09:25.517Z,0.90
2022-07-30T07:10:25.536Z,1.00
2022-07-30T07:11:25.475Z,1.00
2022-07-30T07:12:25.452Z,1.00
2022-07-30T07:13:25.444Z,1.00
2022-07-30T07:14:25.424Z,1.00
2022-07-30T07:15:36.850Z,0.90
2022-07-30T07:17:27.351Z,1.00
2022-07-30T07:18:27.353Z,1.10
2022-07-30T07:20:00.477Z,1.20
2022-07-30T07:20:28.321Z,1.20
2022-07-30T07:21:27.292Z,1.20
2022-07-30T07:22:27.276Z,1.00
2022-07-30T07:23:42.008Z,1.30
2022-07-30T07:24:28.253Z,0.90
2022-07-30T07:25:27.243Z,1.10
2022-07-30T07:26:27.300Z,1.00
2022-07-30T07:27:27.218Z,1.00
2022-07-30T07:28:33.342Z,1.00
2022-07-30T07:29:28.191Z,0.90
2022-07-30T07:30:27.245Z,1.00
2022-07-30T07:32:07.350Z,0.90
2022-07-30T07:32:28.153Z,0.90
2022-07-30T07:33:27.174Z,0.80
2022-07-30T07:34:27.124Z,0.90
2022-07-30T07:35:27.125Z,1.10
2022-07-30T07:36:27.091Z,1.00
2022-07-30T07:37:27.092Z,0.80
2022-07-30T07:38:27.071Z,1.00
2022-07-30T07:39:27.103Z,0.80
2022-07-30T07:40:27.043Z,1.00
2022-07-30T07:41:27.031Z,0.80
2022-07-30T07:42:27.054Z,1.00
2022-07-30T07:43:27.006Z,0.80
2022-07-30T07:44:27.004Z,0.90
2022-07-30T07:45:27.005Z,0.90
2022-07-30T07:46:33.749Z,0.90
2022-07-30T07:47:27.966Z,0.90
2022-07-30T07:48:26.967Z,0.90
2022-07-30T07:49:27.034Z,0.90
2022-07-30T07:50:26.927Z,0.80
2022-07-30T07:51:47.569Z,0.80
2022-07-30T07:52:27.887Z,0.80
2022-07-30T07:53:27.027Z,0.70
2022-07-30T07:54:26.866Z,0.90
2022-07-30T07:55:26.859Z,0.70
2022-07-30T07:56:26.889Z,0.80
2022-07-30T07:57:26.846Z,0.80
2022-07-30T07:58:26.974Z,0.70
2022-07-30T07:59:36.014Z,0.80
2022-07-30T08:00:27.798Z,0.90
2022-07-30T08:01:26.823Z,0.80
2022-07-30T08:02:26.804Z,0.80
2022-07-30T08:03:26.769Z,0.90
2022-07-30T08:04:26.740Z,0.70
2022-07-30T08:05:54.418Z,0.80
2022-07-30T08:06:27.720Z,0.70
2022-07-30T08:07:26.710Z,0.70
2022-07-30T08:08:26.688Z,0.70
2022-07-30T08:09:26.680Z,0.70
2022-07-30T08:10:27.669Z,0.70
2022-07-30T08:11:26.649Z,0.70
2022-07-30T08:12:26.637Z,0.70
2022-07-30T08:13:52.507Z,0.70
2022-07-30T08:14:27.619Z,0.70
2022-07-30T08:15:26.613Z,0.70
2022-07-30T08:16:26.616Z,0.70
2022-07-30T08:17:26.591Z,0.70
2022-07-30T08:18:26.572Z,0.70
2022-07-30T08:19:26.550Z,0.70
2022-07-30T08:20:28.698Z,0.70
2022-07-30T08:21:27.522Z,0.70
2022-07-30T08:22:26.513Z,0.70
2022-07-30T08:23:26.513Z,0.70
2022-07-30T08:24:26.498Z,0.70
2022-07-30T08:25:26.502Z,0.70
2022-07-30T08:26:26.457Z,0.70
2022-07-30T08:27:26.432Z,0.70
2022-07-30T08:28:35.223Z,0.70
2022-07-30T08:29:27.421Z,0.70
2022-07-30T08:30:26.462Z,0.70
2022-07-30T08:31:26.392Z,0.70
2022-07-30T08:32:26.384Z,0.70
2022-07-30T08:33:27.415Z,0.70
2022-07-30T08:34:26.355Z,0.60
2022-07-30T08:35:26.346Z,0.60
2022-07-30T08:36:26.471Z,0.70
2022-07-30T08:37:26.325Z,0.60
2022-07-30T08:38:26.334Z,0.70
2022-07-30T08:39:26.313Z,0.60
2022-07-30T08:40:26.277Z,0.60
2022-07-30T08:41:26.348Z,0.70
2022-07-30T08:42:26.257Z,0.60
2022-07-30T08:43:26.247Z,0.60
2022-07-30T08:44:26.267Z,0.60
2022-07-30T08:45:34.591Z,0.60
2022-07-30T08:46:27.217Z,0.60
2022-07-30T08:47:26.196Z,0.60
2022-07-30T08:48:26.217Z,0.70
2022-07-30T08:49:26.166Z,0.60
2022-07-30T08:50:26.217Z,0.60
2022-07-30T08:51:26.136Z,0.60
2022-07-30T08:52:26.146Z,0.60
2022-07-30T08:53:26.115Z,0.60
2022-07-30T08:54:26.098Z,0.60
2022-07-30T08:55:26.098Z,0.60
2022-07-30T08:56:26.130Z,0.60
2022-07-30T08:57:26.059Z,0.60
2022-07-30T08:58:26.050Z,0.60
2022-07-30T08:59:26.040Z,0.60
2022-07-30T09:00:27.031Z,0.60
2022-07-30T09:01:26.020Z,0.60
2022-07-30T09:02:27.379Z,0.60
2022-07-30T09:03:25.990Z,0.50
2022-07-30T09:04:25.969Z,0.60
2022-07-30T09:05:25.970Z,0.60
2022-07-30T09:06:25.942Z,0.50
2022-07-30T09:07:25.960Z,0.50
2022-07-30T09:08:25.941Z,0.60
2022-07-30T09:09:25.939Z,0.60
2022-07-30T09:10:25.892Z,0.50
2022-07-30T09:11:25.879Z,0.50
2022-07-30T09:12:25.873Z,0.50
2022-07-30T09:13:25.881Z,0.60
2022-07-30T09:14:30.757Z,0.50
2022-07-30T09:15:26.833Z,0.50
2022-07-30T09:16:25.821Z,0.50
2022-07-30T09:17:28.870Z,0.50
2022-07-30T09:18:26.842Z,0.50
2022-07-30T09:19:25.796Z,0.50
2022-07-30T09:20:25.762Z,0.50
2022-07-30T09:21:25.761Z,0.60
2022-07-30T09:22:25.740Z,0.50
2022-07-30T09:23:25.732Z,0.50
2022-07-30T09:24:25.723Z,0.60
2022-07-30T09:25:25.714Z,0.50
2022-07-30T09:26:25.745Z,0.50
2022-07-30T09:27:25.692Z,0.50
2022-07-30T09:28:25.675Z,0.50
2022-07-30T09:29:25.676Z,0.60
2022-07-30T09:30:30.558Z,0.50
2022-07-30T09:31:26.725Z,0.50
2022-07-30T09:32:25.627Z,0.50
2022-07-30T09:33:25.607Z,0.50
2022-07-30T09:34:25.597Z,0.50
2022-07-30T09:35:25.608Z,0.60
2022-07-30T09:36:25.587Z,0.60
2022-07-30T09:37:27.382Z,0.50
2022-07-30T09:38:25.537Z,0.50
2022-07-30T09:39:25.527Z,0.50
2022-07-30T09:40:32.146Z,0.50
2022-07-30T09:41:38.731Z,0.50
2022-07-30T09:42:26.519Z,0.50
2022-07-30T09:43:27.881Z,0.60
2022-07-30T09:44:25.490Z,0.50
2022-07-30T09:45:25.456Z,0.50
2022-07-30T09:46:26.438Z,0.50
2022-07-30T09:47:25.448Z,0.50
2022-07-30T09:48:25.408Z,0.50
2022-07-30T09:49:25.518Z,0.50
2022-07-30T09:50:29.410Z,0.50
2022-07-30T09:51:56.714Z,0.50
2022-07-30T09:52:27.133Z,0.50
2022-07-30T09:53:25.358Z,0.50
2022-07-30T09:54:25.510Z,0.50
2022-07-30T09:55:25.332Z,0.50
2022-07-30T09:56:25.312Z,0.50
2022-07-30T09:57:27.768Z,0.50
2022-07-30T09:58:27.490Z,0.50
2022-07-30T09:59:25.280Z,0.50
2022-07-30T10:00:25.269Z,0.50
2022-07-30T10:01:25.269Z,0.50
2022-07-30T10:02:26.231Z,0.50
2022-07-30T10:03:33.974Z,0.50
2022-07-30T10:04:26.202Z,0.40
2022-07-30T10:05:25.209Z,0.40
2022-07-30T10:06:25.182Z,0.50
2022-07-30T10:07:26.003Z,0.40
2022-07-30T10:08:25.175Z,0.50
2022-07-30T10:09:25.155Z,0.40
2022-07-30T10:10:25.944Z,0.40
2022-07-30T10:11:25.127Z,0.40
2022-07-30T10:12:25.116Z,0.40
2022-07-30T10:13:28.224Z,0.40
2022-07-30T10:14:30.747Z,0.40
2022-07-30T10:15:26.084Z,0.40
2022-07-30T10:16:25.053Z,0.40
2022-07-30T10:17:25.217Z,0.40
2022-07-30T10:18:25.033Z,0.40
2022-07-30T10:19:40.213Z,0.40
2022-07-30T10:20:26.006Z,0.40
2022-07-30T10:21:25.646Z,0.50
2022-07-30T10:22:25.016Z,0.40
2022-07-30T10:23:26.456Z,0.40
2022-07-30T10:24:27.451Z,0.40
2022-07-30T10:25:27.838Z,0.40
2022-07-30T10:26:24.939Z,0.40
2022-07-30T10:27:24.969Z,0.40
2022-07-30T10:28:25.314Z,0.40
2022-07-30T10:29:33.713Z,0.40
2022-07-30T10:30:28.234Z,0.40
2022-07-30T10:31:48.171Z,0.40
2022-07-30T10:32:30.590Z,0.40
2022-07-30T10:33:36.534Z,0.40
2022-07-30T10:34:26.051Z,0.40
2022-07-30T10:35:34.625Z,0.40
2022-07-30T10:36:25.809Z,0.40
2022-07-30T10:37:24.788Z,0.40
2022-07-30T10:38:24.788Z,0.40
2022-07-30T10:39:24.758Z,0.40
2022-07-30T10:40:26.836Z,0.40
2022-07-30T10:41:42.732Z,0.40
2022-07-30T10:42:25.743Z,0.40
2022-07-30T10:43:24.731Z,0.40
2022-07-30T10:44:25.722Z,0.40
2022-07-30T10:45:24.691Z,0.40
2022-07-30T10:46:24.682Z,0.40
2022-07-30T10:47:29.849Z,0.40
2022-07-30T10:48:25.679Z,0.40
2022-07-30T10:49:24.761Z,0.40
2022-07-30T10:50:24.709Z,0.40
2022-07-30T10:51:34.337Z,0.40
2022-07-30T10:52:25.602Z,0.40
2022-07-30T10:53:28.537Z,0.40
2022-07-30T10:54:24.582Z,0.40
2022-07-30T10:55:32.954Z,0.40
2022-07-30T10:56:26.134Z,0.40
2022-07-30T10:57:32.238Z,0.40
2022-07-30T10:58:25.535Z,0.40
2022-07-30T10:59:28.812Z,0.40
2022-07-30T11:00:24.505Z,0.40
2022-07-30T11:01:24.488Z,0.40
2022-07-30T11:02:25.499Z,0.30
2022-07-30T11:03:40.295Z,0.30
2022-07-30T11:04:25.720Z,0.40
2022-07-30T11:05:44.033Z,0.30
2022-07-30T11:06:25.415Z,0.40
2022-07-30T11:07:24.426Z,0.30
2022-07-30T11:08:27.280Z,0.40
2022-07-30T11:09:25.437Z,0.40
2022-07-30T11:10:24.376Z,0.30
2022-07-30T11:11:59.075Z,0.30
2022-07-30T11:12:25.398Z,0.40
2022-07-30T11:13:25.100Z,0.40
2022-07-30T11:14:24.375Z,0.40
2022-07-30T11:15:24.319Z,0.40
2022-07-30T11:16:24.464Z,0.40
2022-07-30T11:17:24.298Z,0.40
2022-07-30T11:18:24.848Z,0.30
2022-07-30T11:19:55.315Z,0.30
2022-07-30T11:20:25.285Z,0.40
2022-07-30T11:21:24.228Z,0.30
2022-07-30T11:22:24.219Z,0.30
2022-07-30T11:23:24.226Z,0.40
2022-07-30T11:24:24.227Z,0.30
2022-07-30T11:25:24.180Z,0.40
2022-07-30T11:26:25.188Z,0.30
2022-07-30T11:27:24.170Z,0.40
2022-07-30T11:28:24.169Z,0.30
2022-07-30T11:29:32.775Z,0.30
2022-07-30T11:30:25.161Z,0.30
2022-07-30T11:31:24.134Z,0.30
2022-07-30T11:32:25.105Z,0.40
2022-07-30T11:33:32.027Z,0.30
2022-07-30T11:34:25.907Z,0.30
2022-07-30T11:35:24.074Z,0.30
2022-07-30T11:36:24.412Z,0.30
2022-07-30T11:37:32.102Z,0.30
2022-07-30T11:38:25.052Z,0.30
2022-07-30T11:39:24.012Z,0.30
2022-07-30T11:40:26.365Z,0.30
2022-07-30T11:41:23.985Z,0.30
2022-07-30T11:42:23.981Z,0.30
2022-07-30T11:43:35.261Z,0.30
2022-07-30T11:44:24.965Z,0.30
2022-07-30T11:45:23.995Z,0.30
2022-07-30T11:46:29.663Z,0.30
2022-07-30T11:47:24.940Z,0.30
2022-07-30T11:48:23.905Z,0.30
2022-07-30T11:49:24.041Z,0.30
2022-07-30T11:50:23.987Z,0.30
2022-07-30T11:51:23.883Z,0.30
2022-07-30T11:52:23.868Z,0.30
2022-07-30T11:53:23.900Z,0.30
2022-07-30T11:54:25.798Z,0.30
2022-07-30T11:55:23.829Z,0.30
2022-07-30T11:56:23.828Z,0.30
2022-07-30T11:57:23.799Z,0.30
2022-07-30T11:58:23.789Z,0.30
2022-07-30T11:59:23.786Z,0.30
2022-07-30T12:00:23.767Z,0.30
2022-07-30T12:01:23.748Z,0.30
2022-07-30T12:02:23.778Z,0.40
2022-07-30T12:03:23.727Z,0.30
2022-07-30T12:04:23.708Z,0.40
2022-07-30T12:05:23.730Z,0.30
2022-07-30T12:06:23.689Z,0.30
2022-07-30T12:07:23.676Z,0.30
2022-07-30T12:08:36.006Z,0.30
2022-07-30T12:09:27.273Z,0.30
2022-07-30T12:10:26.720Z,0.30
2022-07-30T12:11:23.623Z,0.30
2022-07-30T12:12:23.636Z,0.30
2022-07-30T12:13:23.651Z,0.30
2022-07-30T12:14:24.593Z,0.30
2022-07-30T12:15:23.583Z,0.30
2022-07-30T12:16:23.563Z,0.30
2022-07-30T12:17:23.557Z,0.30
2022-07-30T12:18:26.595Z,0.30
2022-07-30T12:19:23.543Z,0.30
2022-07-30T12:20:23.570Z,0.30
2022-07-30T12:21:23.503Z,0.30
2022-07-30T12:22:23.511Z,0.30
2022-07-30T12:23:23.482Z,0.30
2022-07-30T12:24:23.475Z,0.30
2022-07-30T12:25:23.472Z,0.30
2022-07-30T12:26:23.445Z,0.30
2022-07-30T12:27:23.446Z,0.30
2022-07-30T12:28:23.436Z,0.30
2022-07-30T12:29:23.413Z,0.30
2022-07-30T12:30:23.445Z,0.30
2022-07-30T12:31:23.406Z,0.30
2022-07-30T12:32:23.365Z,0.30
2022-07-30T12:33:23.354Z,0.30
2022-07-30T12:34:23.338Z,0.30
2022-07-30T12:35:23.332Z,0.30
2022-07-30T12:36:23.323Z,0.30
2022-07-30T12:37:23.326Z,0.30
2022-07-30T12:38:23.297Z,0.30
2022-07-30T12:39:23.279Z,0.30
2022-07-30T12:40:23.398Z,0.30
2022-07-30T12:41:23.282Z,0.30
2022-07-30T12:42:23.259Z,0.30
2022-07-30T12:43:23.260Z,0.20
2022-07-30T12:44:23.229Z,0.30
2022-07-30T12:45:23.219Z,0.30
2022-07-30T12:46:23.199Z,0.30
2022-07-30T12:47:23.198Z,0.30
2022-07-30T12:48:23.168Z,0.30
2022-07-30T12:49:23.238Z,0.30
2022-07-30T12:50:24.160Z,0.30
2022-07-30T12:51:23.143Z,0.30
2022-07-30T12:52:28.579Z,0.30
2022-07-30T12:53:24.142Z,0.30
2022-07-30T12:54:23.122Z,0.30
2022-07-30T12:55:23.118Z,0.30
2022-07-30T12:56:23.070Z,0.30
2022-07-30T12:57:23.061Z,0.30
2022-07-30T12:58:23.054Z,0.30
2022-07-30T12:59:23.104Z,0.30
2022-07-30T13:00:23.022Z,0.30
2022-07-30T13:01:23.075Z,0.30
2022-07-30T13:02:23.003Z,0.30
2022-07-30T13:03:22.987Z,0.20
2022-07-30T13:04:22.974Z,0.30
2022-07-30T13:05:22.974Z,0.30
2022-07-30T13:06:22.954Z,0.30
2022-07-30T13:07:22.964Z,0.30
2022-07-30T13:08:23.144Z,0.30
2022-07-30T13:09:22.915Z,0.30
2022-07-30T13:10:25.139Z,0.30
2022-07-30T13:11:23.888Z,0.30
2022-07-30T13:12:22.864Z,0.20
2022-07-30T13:13:22.845Z,0.20
2022-07-30T13:14:26.536Z,0.20
2022-07-30T13:15:22.842Z,0.30
2022-07-30T13:16:22.816Z,0.20
2022-07-30T13:17:22.803Z,0.20
2022-07-30T13:18:29.818Z,0.20
2022-07-30T13:19:22.798Z,0.20
2022-07-30T13:20:22.804Z,0.20
2022-07-30T13:21:22.749Z,0.20
2022-07-30T13:22:22.739Z,0.20
2022-07-30T13:23:22.730Z,0.30
2022-07-30T13:24:22.719Z,0.20
2022-07-30T13:25:22.698Z,0.20